Terminal Aerodrome Forecast
Issued by NWS

Home | Current Version | Previous Version | Text Only | Print | Product List | Glossary On
Versions: 1 2 3 4 5 6 7 8 9 10 11 12 13 14 15 16
000
FTUS41 KCAR 040520
TAFBHB
TAF
KBHB 040520Z 0406/0506 21009KT 4SM BR OVC003
     FM041300 17005KT P6SM SCT003 BKN060
     FM041800 19008KT 5SM -SHRA OVC070
      AMD LTD TO CLD VIS AND WIND=

USA.gov is the U.S. government's official web portal to all federal, state and local government web resources and services.